Time;durP1;ratioP1;P1;durP2;ratioP2;P2;SDS_P1;SDS_P2;PMS_P1;PMS_P2;Temp;Humidity;BMP_temperature;BMP_pressure;BME280_temperature;BME280_humidity;BME280_pressure;Samples;Min_cycle;Max_cycle;Signal;HPM_P1;HPM_P2
2022/05/11 00:01:32;;;;;;;;;;;13.30;99.90;;;;;;5052146;28;20019;-71
2022/05/11 00:03:57;;;;;;;;;;;13.20;99.90;;;;;;5051753;28;20417;-71
2022/05/11 00:06:25;;;;;;;;;;;13.10;99.90;;;;;;5051790;28;19909;-72
2022/05/11 00:08:51;;;;;;;;;;;13.10;99.90;;;;;;5052032;28;19909;-71
2022/05/11 00:11:17;;;;;;;;;;;13.00;99.90;;;;;;5051628;28;19958;-71
2022/05/11 00:13:43;;;;;;;;;;;12.90;99.90;;;;;;5051483;28;19909;-72
2022/05/11 00:16:09;;;;;;;;;;;13.00;99.90;;;;;;5052089;28;19951;-72
2022/05/11 00:18:34;;;;;;;;;;;13.00;99.90;;;;;;5051848;28;20424;-72
2022/05/11 00:21:00;;;;;;;;;;;13.10;99.90;;;;;;5051921;28;19915;-71
2022/05/11 00:23:25;;;;;;;;;;;13.20;99.90;;;;;;5070719;28;20273;-71
2022/05/11 00:25:51;;;;;;;;;;;13.20;99.90;;;;;;5071273;28;19912;-71
2022/05/11 00:28:16;;;;;;;;;;;13.30;99.90;;;;;;5071048;28;19908;-71
2022/05/11 00:30:42;;;;;;;;;;;13.40;99.90;;;;;;5071490;28;19974;-72
2022/05/11 00:33:11;;;;;;;;;;;13.30;99.90;;;;;;5070488;28;19915;-71
2022/05/11 00:35:37;;;;;;;;;;;13.30;99.90;;;;;;5068633;28;20019;-72
2022/05/11 00:38:03;;;;;;;;;;;13.10;99.90;;;;;;5051502;28;19992;-71
2022/05/11 00:40:29;;;;;;;;;;;13.10;99.90;;;;;;5051931;28;19909;-71
2022/05/11 00:42:54;;;;;;;;;;;13.00;99.90;;;;;;5050153;28;19915;-71
2022/05/11 00:45:20;;;;;;;;;;;12.90;99.90;;;;;;5051571;28;20286;-72
2022/05/11 00:47:51;;;;;;;;;;;13.00;99.90;;;;;;5051548;28;19947;-71
2022/05/11 00:50:21;;;;;;;;;;;12.90;99.90;;;;;;5051324;28;19917;-71
2022/05/11 00:52:50;;;;;;;;;;;13.00;99.90;;;;;;5050906;28;19952;-71
2022/05/11 00:55:21;;;;;;;;;;;12.90;99.90;;;;;;5051150;28;19909;-71
2022/05/11 00:57:49;;;;;;;;;;;12.90;99.90;;;;;;5051763;28;19912;-71
2022/05/11 01:00:15;;;;;;;;;;;12.90;99.90;;;;;;5052829;28;19908;-71
2022/05/11 01:02:42;;;;;;;;;;;12.80;99.90;;;;;;5055340;28;19916;-71
2022/05/11 01:05:08;;;;;;;;;;;12.80;99.90;;;;;;5055281;28;19920;-71
2022/05/11 01:07:35;;;;;;;;;;;12.60;99.90;;;;;;5055508;28;19913;-72
2022/05/11 01:10:01;;;;;;;;;;;12.60;99.90;;;;;;5055435;28;19956;-71
2022/05/11 01:12:29;;;;;;;;;;;12.60;99.90;;;;;;5055159;28;20458;-71
2022/05/11 01:14:57;;;;;;;;;;;12.60;99.90;;;;;;5054251;28;19916;-71
2022/05/11 01:17:24;;;;;;;;;;;12.50;99.90;;;;;;5055155;28;20361;-71
2022/05/11 01:19:50;;;;;;;;;;;12.50;99.90;;;;;;5055113;28;19909;-72
2022/05/11 01:22:21;;;;;;;;;;;12.40;99.90;;;;;;5054992;28;20411;-71
2022/05/11 01:24:47;;;;;;;;;;;12.50;99.90;;;;;;5054973;28;19998;-71
2022/05/11 01:27:23;;;;;;;;;;;12.50;99.90;;;;;;5055011;28;19935;-71
2022/05/11 01:29:49;;;;;;;;;;;12.50;99.90;;;;;;5055044;28;19909;-71
2022/05/11 01:32:14;;;;;;;;;;;12.40;99.90;;;;;;5054539;28;19913;-71
2022/05/11 01:34:40;;;;;;;;;;;12.40;99.90;;;;;;5073760;28;19908;-72
2022/05/11 01:37:06;;;;;;;;;;;12.40;99.90;;;;;;5073837;28;20392;-71
2022/05/11 01:39:31;;;;;;;;;;;12.30;99.90;;;;;;5062853;28;19952;-71
2022/05/11 01:41:57;;;;;;;;;;;12.30;99.90;;;;;;5054612;28;19944;-71
2022/05/11 01:44:22;;;;;;;;;;;12.20;99.90;;;;;;5054407;28;19913;-72
2022/05/11 01:46:52;;;;;;;;;;;12.20;99.90;;;;;;5054730;28;19909;-71
2022/05/11 01:49:18;;;;;;;;;;;12.20;99.90;;;;;;5054425;28;19917;-71
2022/05/11 01:51:44;;;;;;;;;;;12.20;99.90;;;;;;5054706;28;19938;-72
2022/05/11 01:54:10;;;;;;;;;;;12.20;99.90;;;;;;5054259;28;20010;-71
2022/05/11 01:56:35;;;;;;;;;;;12.20;99.90;;;;;;5054545;28;20452;-72
2022/05/11 01:59:01;;;;;;;;;;;12.20;99.90;;;;;;5054407;28;19956;-72
2022/05/11 02:01:27;;;;;;;;;;;12.20;99.90;;;;;;5054530;28;20011;-72
2022/05/11 02:03:53;;;;;;;;;;;12.20;99.90;;;;;;5054172;28;19916;-72
2022/05/11 02:09:03;;;;;;;;;;;12.10;99.90;;;;;;5054413;28;20368;-72
2022/05/11 02:11:29;;;;;;;;;;;12.00;99.90;;;;;;5053348;28;19913;-72
2022/05/11 02:13:57;;;;;;;;;;;12.00;99.90;;;;;;5054077;28;19916;-72
2022/05/11 02:16:23;;;;;;;;;;;11.90;99.90;;;;;;5054119;28;20286;-72
2022/05/11 02:18:48;;;;;;;;;;;11.90;99.90;;;;;;5054499;28;19909;-72
2022/05/11 02:21:14;;;;;;;;;;;11.80;99.90;;;;;;5053879;28;19966;-71
2022/05/11 02:23:39;;;;;;;;;;;11.80;99.90;;;;;;5054095;28;20361;-72
2022/05/11 02:26:08;;;;;;;;;;;11.90;99.90;;;;;;5053932;28;19916;-72
2022/05/11 02:28:33;;;;;;;;;;;11.90;99.90;;;;;;5053827;28;19913;-72
2022/05/11 02:31:00;;;;;;;;;;;11.90;99.90;;;;;;5053753;28;19913;-72
2022/05/11 02:33:26;;;;;;;;;;;11.90;99.90;;;;;;5053303;28;19962;-72
2022/05/11 02:35:52;;;;;;;;;;;11.90;99.90;;;;;;5053722;28;20015;-72
2022/05/11 02:38:19;;;;;;;;;;;11.90;99.90;;;;;;5056695;28;19948;-72
2022/05/11 02:40:47;;;;;;;;;;;11.80;99.90;;;;;;5055588;28;19954;-72
2022/05/11 02:43:13;;;;;;;;;;;11.80;99.90;;;;;;5052147;28;20318;-72
2022/05/11 02:45:40;;;;;;;;;;;11.90;99.90;;;;;;5053769;28;19994;-72
2022/05/11 02:48:07;;;;;;;;;;;11.90;99.90;;;;;;5053495;28;19915;-73
2022/05/11 02:50:33;;;;;;;;;;;11.90;99.90;;;;;;5053388;28;19913;-72
2022/05/11 02:52:59;;;;;;;;;;;12.00;99.90;;;;;;5054112;28;19909;-72
2022/05/11 02:55:25;;;;;;;;;;;12.10;99.90;;;;;;5052883;28;19975;-72
2022/05/11 02:57:51;;;;;;;;;;;12.10;99.90;;;;;;5053543;28;20409;-72
2022/05/11 03:00:17;;;;;;;;;;;12.20;99.90;;;;;;5053573;28;19908;-72
2022/05/11 03:02:43;;;;;;;;;;;12.20;99.90;;;;;;5053178;28;19954;-71
2022/05/11 03:05:11;;;;;;;;;;;12.20;99.90;;;;;;5052627;28;19913;-72
2022/05/11 03:07:37;;;;;;;;;;;12.20;99.90;;;;;;5053405;28;19915;-72
2022/05/11 03:10:02;;;;;;;;;;;12.20;99.90;;;;;;5053370;28;20016;-72
2022/05/11 03:12:28;;;;;;;;;;;12.10;99.90;;;;;;5053088;28;20432;-72
2022/05/11 03:14:54;;;;;;;;;;;12.10;99.90;;;;;;5053107;28;19958;-72
2022/05/11 03:17:20;;;;;;;;;;;12.00;99.90;;;;;;5053181;28;19909;-72
2022/05/11 03:19:45;;;;;;;;;;;12.00;99.90;;;;;;5053104;28;19927;-72
2022/05/11 03:22:11;;;;;;;;;;;11.90;99.90;;;;;;5052882;28;19913;-72
2022/05/11 03:24:37;;;;;;;;;;;11.90;99.90;;;;;;5051410;28;20380;-72
2022/05/11 03:27:03;;;;;;;;;;;11.90;99.90;;;;;;5053034;28;19909;-72
2022/05/11 03:29:29;;;;;;;;;;;11.90;99.90;;;;;;5052868;28;19913;-72
2022/05/11 03:34:52;;;;;;;;;;;11.90;99.90;;;;;;5047350;28;19909;-72
2022/05/11 03:37:18;;;;;;;;;;;11.90;99.90;;;;;;5052805;28;19915;-72
2022/05/11 03:39:44;;;;;;;;;;;11.80;99.90;;;;;;5052762;28;19919;-72
2022/05/11 03:42:12;;;;;;;;;;;11.90;99.90;;;;;;5052532;28;20361;-71
2022/05/11 03:44:37;;;;;;;;;;;12.00;99.90;;;;;;5052398;28;20337;-72
2022/05/11 03:47:03;;;;;;;;;;;11.90;99.90;;;;;;5053668;28;19959;-72
2022/05/11 03:49:29;;;;;;;;;;;11.80;99.90;;;;;;5052695;28;19916;-72
2022/05/11 03:51:54;;;;;;;;;;;11.70;99.90;;;;;;5052623;28;20309;-71
2022/05/11 03:54:20;;;;;;;;;;;11.70;99.90;;;;;;5051971;28;20393;-72
2022/05/11 03:56:45;;;;;;;;;;;11.70;99.90;;;;;;5052450;28;19958;-72
2022/05/11 03:59:11;;;;;;;;;;;11.70;99.90;;;;;;5052451;28;19955;-72
2022/05/11 04:01:36;;;;;;;;;;;11.60;99.90;;;;;;5050950;28;19912;-72
2022/05/11 04:04:02;;;;;;;;;;;11.60;99.90;;;;;;5052168;28;19952;-72
2022/05/11 04:06:29;;;;;;;;;;;11.60;99.90;;;;;;5052414;28;20219;-72
2022/05/11 04:08:54;;;;;;;;;;;11.50;99.90;;;;;;5051964;28;19913;-72
2022/05/11 04:11:22;;;;;;;;;;;11.70;99.90;;;;;;5052038;28;19939;-71
2022/05/11 04:13:48;;;;;;;;;;;11.90;99.90;;;;;;5051745;28;20472;-72
2022/05/11 04:16:14;;;;;;;;;;;11.90;99.90;;;;;;5051684;28;19913;-72
2022/05/11 04:18:40;;;;;;;;;;;11.90;99.90;;;;;;5051945;28;19909;-72
2022/05/11 04:21:07;;;;;;;;;;;11.90;99.90;;;;;;5051861;28;20427;-72
2022/05/11 04:23:32;;;;;;;;;;;12.00;99.90;;;;;;5051673;28;19939;-72
2022/05/11 04:25:58;;;;;;;;;;;12.00;99.90;;;;;;5052003;28;19909;-71
2022/05/11 04:28:23;;;;;;;;;;;12.10;99.90;;;;;;5051932;28;19913;-72
2022/05/11 04:30:49;;;;;;;;;;;12.10;99.90;;;;;;5051671;28;19913;-72
2022/05/11 04:33:14;;;;;;;;;;;12.20;99.90;;;;;;5051610;28;19958;-72
2022/05/11 04:35:40;;;;;;;;;;;12.10;99.90;;;;;;5055954;28;19916;-72
2022/05/11 04:38:07;;;;;;;;;;;12.10;99.90;;;;;;5058680;28;19908;-72
2022/05/11 04:40:34;;;;;;;;;;;12.30;99.90;;;;;;5077839;28;20373;-72
2022/05/11 04:43:05;;;;;;;;;;;12.20;99.90;;;;;;5077533;28;19909;-72
2022/05/11 04:45:31;;;;;;;;;;;12.20;99.90;;;;;;5074748;28;20358;-72
2022/05/11 04:47:56;;;;;;;;;;;12.20;99.90;;;;;;5057143;28;19915;-72
2022/05/11 04:50:21;;;;;;;;;;;12.30;99.90;;;;;;5058367;28;19920;-72
2022/05/11 04:52:47;;;;;;;;;;;12.30;99.90;;;;;;5058320;28;20011;-72
2022/05/11 04:55:13;;;;;;;;;;;12.30;99.90;;;;;;5058347;28;20293;-72
2022/05/11 04:57:38;;;;;;;;;;;12.50;99.90;;;;;;5063846;28;20339;-72
2022/05/11 05:00:06;;;;;;;;;;;12.50;99.90;;;;;;5077748;28;19909;-72
2022/05/11 05:02:32;;;;;;;;;;;12.50;99.90;;;;;;5077475;28;20034;-72
2022/05/11 05:04:58;;;;;;;;;;;12.50;99.90;;;;;;5077442;28;20407;-72
2022/05/11 05:07:24;;;;;;;;;;;12.60;99.90;;;;;;5077567;28;19912;-72
2022/05/11 05:09:49;;;;;;;;;;;12.80;99.90;;;;;;5077651;28;19991;-72
2022/05/11 05:12:15;;;;;;;;;;;12.90;99.90;;;;;;5077203;28;19982;-72
2022/05/11 05:14:42;;;;;;;;;;;13.00;99.90;;;;;;5077192;28;19909;-72
2022/05/11 05:17:09;;;;;;;;;;;13.10;99.90;;;;;;5063738;28;19909;-72
2022/05/11 05:19:36;;;;;;;;;;;13.20;99.90;;;;;;5056758;28;20377;-72
2022/05/11 05:22:03;;;;;;;;;;;13.50;99.90;;;;;;5056980;28;20358;-72
2022/05/11 05:24:30;;;;;;;;;;;13.70;99.90;;;;;;5057697;28;19909;-71
2022/05/11 05:26:56;;;;;;;;;;;13.90;99.90;;;;;;5057315;28;19912;-72
2022/05/11 05:32:05;;;;;;;;;;;14.30;99.90;;;;;;5057713;28;20286;-72
2022/05/11 05:34:31;;;;;;;;;;;14.50;99.90;;;;;;5057162;28;19909;-72
2022/05/11 05:36:56;;;;;;;;;;;14.50;99.90;;;;;;5057818;28;19909;-72
2022/05/11 05:39:22;;;;;;;;;;;14.50;99.90;;;;;;5057795;28;19945;-72
2022/05/11 05:41:48;;;;;;;;;;;14.50;99.90;;;;;;5057665;28;20330;-72
2022/05/11 05:44:13;;;;;;;;;;;14.70;99.90;;;;;;5057461;28;19909;-71
2022/05/11 05:46:39;;;;;;;;;;;14.90;99.90;;;;;;5061744;28;19940;-71
2022/05/11 05:49:05;;;;;;;;;;;15.00;99.90;;;;;;5054338;28;19921;-71
2022/05/11 05:51:30;;;;;;;;;;;15.20;99.90;;;;;;5054089;28;20281;-72
2022/05/11 05:53:56;;;;;;;;;;;15.30;99.90;;;;;;5053763;28;19908;-72
2022/05/11 05:56:23;;;;;;;;;;;15.50;99.90;;;;;;5054204;28;19909;-72
2022/05/11 05:58:49;;;;;;;;;;;15.50;99.90;;;;;;5054028;28;19963;-72
2022/05/11 06:01:16;;;;;;;;;;;15.50;99.90;;;;;;5053937;28;19917;-71
2022/05/11 06:03:42;;;;;;;;;;;15.70;99.90;;;;;;5053708;28;19944;-72
2022/05/11 06:06:08;;;;;;;;;;;15.70;99.90;;;;;;5053997;28;19986;-73
2022/05/11 06:08:34;;;;;;;;;;;16.10;99.90;;;;;;5053792;28;19913;-70
2022/05/11 06:11:01;;;;;;;;;;;17.50;99.90;;;;;;5053770;28;19988;-71
2022/05/11 06:13:27;;;;;;;;;;;17.40;99.90;;;;;;5053387;28;20354;-71
2022/05/11 06:15:53;;;;;;;;;;;16.60;99.90;;;;;;5053532;28;19916;-71
2022/05/11 06:18:19;;;;;;;;;;;16.50;99.90;;;;;;5053316;28;19952;-71
2022/05/11 06:20:45;;;;;;;;;;;16.50;99.90;;;;;;5053617;28;19913;-72
2022/05/11 06:23:10;;;;;;;;;;;16.50;99.90;;;;;;5053080;28;19909;-71
2022/05/11 06:25:40;;;;;;;;;;;16.70;99.90;;;;;;5053599;28;19931;-71
2022/05/11 06:28:06;;;;;;;;;;;16.70;99.90;;;;;;5052375;28;19909;-71
2022/05/11 06:30:32;;;;;;;;;;;16.80;99.90;;;;;;5064466;28;19915;-71
2022/05/11 06:33:00;;;;;;;;;;;16.90;99.90;;;;;;5052130;28;20388;-71
2022/05/11 06:35:26;;;;;;;;;;;17.10;99.90;;;;;;5047590;28;19913;-72
2022/05/11 06:37:54;;;;;;;;;;;17.20;99.90;;;;;;5052662;28;19909;-71
2022/05/11 06:40:20;;;;;;;;;;;17.50;99.90;;;;;;5047025;28;19943;-72
2022/05/11 06:42:45;;;;;;;;;;;17.50;99.90;;;;;;5052437;28;19948;-72
2022/05/11 06:45:11;;;;;;;;;;;17.70;99.90;;;;;;5052886;28;20374;-72
2022/05/11 06:47:37;;;;;;;;;;;17.80;99.90;;;;;;5051458;28;20423;-72
2022/05/11 06:50:03;;;;;;;;;;;17.90;99.90;;;;;;5052562;28;19999;-72
2022/05/11 06:52:28;;;;;;;;;;;18.10;99.90;;;;;;5051727;28;19972;-71
2022/05/11 07:00:23;;;;;;;;;;;19.70;99.40;;;;;;5035719;28;19920;-72
2022/05/11 07:02:49;;;;;;;;;;;20.10;99.40;;;;;;5047007;28;19996;-72
2022/05/11 07:05:15;;;;;;;;;;;20.80;97.90;;;;;;5052443;28;19913;-72
2022/05/11 07:07:40;;;;;;;;;;;21.40;97.00;;;;;;5052673;28;19909;-72
2022/05/11 07:10:06;;;;;;;;;;;22.00;95.10;;;;;;5052606;28;20366;-72
2022/05/11 07:12:35;;;;;;;;;;;21.80;95.10;;;;;;5045627;28;20282;-73
2022/05/11 07:15:05;;;;;;;;;;;22.20;94.00;;;;;;5051969;28;20285;-72
2022/05/11 07:17:33;;;;;;;;;;;22.50;93.40;;;;;;5051787;28;19958;-72
2022/05/11 07:20:00;;;;;;;;;;;23.10;92.10;;;;;;5052126;28;19909;-73
2022/05/11 07:22:26;;;;;;;;;;;23.00;92.20;;;;;;5052331;28;19909;-73
2022/05/11 07:24:51;;;;;;;;;;;23.40;89.50;;;;;;5051915;28;19909;-73
2022/05/11 07:27:18;;;;;;;;;;;23.60;91.10;;;;;;5052708;28;19912;-73
2022/05/11 07:29:43;;;;;;;;;;;24.50;90.00;;;;;;5051861;28;20279;-72
2022/05/11 07:32:09;;;;;;;;;;;24.10;90.20;;;;;;5051954;28;19913;-73
2022/05/11 07:34:35;;;;;;;;;;;24.70;88.30;;;;;;5051801;28;19966;-72
2022/05/11 07:37:00;;;;;;;;;;;23.90;87.50;;;;;;5052247;28;19916;-72
2022/05/11 07:39:26;;;;;;;;;;;24.40;88.70;;;;;;5051990;28;19919;-72
2022/05/11 07:41:52;;;;;;;;;;;24.40;87.60;;;;;;5051605;28;20354;-71
2022/05/11 07:44:17;;;;;;;;;;;25.10;86.70;;;;;;5051371;28;19928;-71
2022/05/11 07:46:43;;;;;;;;;;;24.90;85.10;;;;;;5051709;28;20449;-73
2022/05/11 07:49:09;;;;;;;;;;;25.00;85.40;;;;;;5051527;28;19962;-72
2022/05/11 07:51:36;;;;;;;;;;;25.60;84.10;;;;;;5059749;28;19916;-72
2022/05/11 07:54:02;;;;;;;;;;;25.80;81.90;;;;;;5070662;28;19908;-72
2022/05/11 08:01:56;;;;;;;;;;;25.30;80.00;;;;;;5054084;28;19920;-72
2022/05/11 08:04:21;;;;;;;;;;;25.30;80.80;;;;;;5051129;28;20358;-72
2022/05/11 08:06:47;;;;;;;;;;;25.40;81.30;;;;;;5051593;28;19987;-72
2022/05/11 08:09:13;;;;;;;;;;;25.70;80.00;;;;;;5051473;28;20350;-72
2022/05/11 08:11:39;;;;;;;;;;;26.50;77.70;;;;;;5050893;28;19917;-72
2022/05/11 08:14:04;;;;;;;;;;;26.30;77.40;;;;;;5050498;28;20507;-72
2022/05/11 08:16:30;;;;;;;;;;;26.30;78.20;;;;;;5051177;28;19909;-72
2022/05/11 08:18:55;;;;;;;;;;;26.70;76.40;;;;;;5044647;28;19916;-72
2022/05/11 08:21:21;;;;;;;;;;;26.70;76.10;;;;;;5051520;28;19909;-72
2022/05/11 08:23:47;;;;;;;;;;;27.20;75.10;;;;;;5051289;28;19908;-72
2022/05/11 08:26:12;;;;;;;;;;;27.60;73.70;;;;;;5051529;28;20184;-73
2022/05/11 08:28:38;;;;;;;;;;;27.50;75.60;;;;;;5051784;28;19916;-72
2022/05/11 08:33:58;;;;;;;;;;;28.00;75.70;;;;;;5047178;28;20358;-73
2022/05/11 08:36:24;;;;;;;;;;;28.20;68.80;;;;;;5051363;28;19952;-73
2022/05/11 08:38:52;;;;;;;;;;;27.70;71.80;;;;;;5045274;28;20269;-73
2022/05/11 08:41:36;;;;;;;;;;;28.50;73.40;;;;;;5051014;28;19976;-73
2022/05/11 08:44:01;;;;;;;;;;;28.70;69.40;;;;;;5046685;28;20026;-72
2022/05/11 08:46:30;;;;;;;;;;;29.00;69.60;;;;;;5051928;28;19952;-73
2022/05/11 08:48:59;;;;;;;;;;;28.80;70.80;;;;;;5050245;28;19920;-72
2022/05/11 08:51:24;;;;;;;;;;;29.20;68.40;;;;;;5051275;28;19924;-73
2022/05/11 08:53:54;;;;;;;;;;;28.80;70.50;;;;;;5051262;28;19909;-73
2022/05/11 08:56:20;;;;;;;;;;;29.70;69.80;;;;;;5051605;28;20381;-72
2022/05/11 08:58:48;;;;;;;;;;;29.80;70.60;;;;;;5047629;28;20019;-73
2022/05/11 09:01:18;;;;;;;;;;;30.10;68.00;;;;;;5050396;28;20361;-73
2022/05/11 09:03:44;;;;;;;;;;;29.50;68.00;;;;;;5050594;28;20309;-72
2022/05/11 09:06:17;;;;;;;;;;;29.90;67.70;;;;;;5051085;28;20381;-73
2022/05/11 09:08:43;;;;;;;;;;;30.60;70.30;;;;;;5050809;28;20382;-73
2022/05/11 09:11:11;;;;;;;;;;;29.90;66.70;;;;;;5050840;28;20003;-73
2022/05/11 09:13:37;;;;;;;;;;;30.30;67.20;;;;;;5050632;28;20033;-73
2022/05/11 09:16:05;;;;;;;;;;;30.40;67.10;;;;;;5050613;28;19919;-73
2022/05/11 09:18:31;;;;;;;;;;;30.00;66.70;;;;;;5052569;28;19913;-73
2022/05/11 09:20:58;;;;;;;;;;;29.90;67.50;;;;;;5054436;28;19920;-73
2022/05/11 09:23:28;;;;;;;;;;;30.50;66.30;;;;;;5053295;28;19932;-73
2022/05/11 09:26:02;;;;;;;;;;;30.20;65.10;;;;;;5054569;28;19915;-73
2022/05/11 09:28:29;;;;;;;;;;;28.70;66.80;;;;;;5054314;28;19915;-73
2022/05/11 09:31:21;;;;;;;;;;;29.10;68.60;;;;;;5054457;28;19932;-73
2022/05/11 09:33:57;;;;;;;;;;;29.20;67.20;;;;;;5053752;28;19913;-72
2022/05/11 09:36:35;;;;;;;;;;;30.20;65.50;;;;;;5054070;28;19909;-72
2022/05/11 09:39:14;;;;;;;;;;;29.50;64.30;;;;;;5053142;28;20286;-72
2022/05/11 09:41:40;;;;;;;;;;;30.40;68.80;;;;;;5054327;28;19909;-73
2022/05/11 09:44:20;;;;;;;;;;;30.60;65.50;;;;;;5053884;28;19913;-72
2022/05/11 09:46:46;;;;;;;;;;;31.20;66.20;;;;;;5054414;28;19919;-72
2022/05/11 09:49:24;;;;;;;;;;;30.40;63.60;;;;;;5055019;28;19916;-72
2022/05/11 09:51:51;;;;;;;;;;;30.60;60.30;;;;;;5048099;28;19913;-72
2022/05/11 09:54:42;;;;;;;;;;;30.50;62.60;;;;;;5053943;28;19944;-73
2022/05/11 09:57:07;;;;;;;;;;;30.40;60.10;;;;;;5054154;28;19913;-72
2022/05/11 09:59:43;;;;;;;;;;;30.40;63.60;;;;;;5049877;28;19970;-72
2022/05/11 10:02:24;;;;;;;;;;;31.10;63.60;;;;;;5053572;28;19916;-72
2022/05/11 10:05:04;;;;;;;;;;;28.30;62.60;;;;;;5053668;28;19995;-72
2022/05/11 10:07:37;;;;;;;;;;;29.70;63.60;;;;;;5049193;28;19909;-71
2022/05/11 10:10:12;;;;;;;;;;;28.40;65.70;;;;;;5053628;28;19908;-73
2022/05/11 10:12:39;;;;;;;;;;;28.60;61.50;;;;;;5053500;28;19916;-72
2022/05/11 10:23:42;;;;;;;;;;;29.70;60.20;;;;;;5053308;28;19954;-72
2022/05/11 10:26:12;;;;;;;;;;;30.00;60.30;;;;;;5053458;28;19913;-72
2022/05/11 10:28:56;;;;;;;;;;;29.30;59.00;;;;;;5053423;28;20251;-72
2022/05/11 10:31:31;;;;;;;;;;;29.60;60.60;;;;;;5051724;28;19916;-72
2022/05/11 10:33:57;;;;;;;;;;;29.10;60.40;;;;;;5056009;28;19954;-74
2022/05/11 10:36:24;;;;;;;;;;;29.70;58.90;;;;;;5056003;28;19909;-72
2022/05/11 10:38:58;;;;;;;;;;;29.20;60.30;;;;;;5055441;28;19942;-73
2022/05/11 10:41:24;;;;;;;;;;;28.70;60.20;;;;;;5055056;28;19955;-74
2022/05/11 10:44:08;;;;;;;;;;;28.50;58.20;;;;;;5053679;28;19916;-72
2022/05/11 10:46:36;;;;;;;;;;;29.00;60.40;;;;;;5046937;28;20335;-72
2022/05/11 10:49:01;;;;;;;;;;;29.40;59.80;;;;;;5054222;28;20286;-72
2022/05/11 10:51:45;;;;;;;;;;;29.90;59.50;;;;;;5051712;28;19913;-72
2022/05/11 10:54:22;;;;;;;;;;;29.30;57.20;;;;;;5052105;28;21443;-72
2022/05/11 10:56:56;;;;;;;;;;;29.00;60.40;;;;;;5053601;28;19908;-72
2022/05/11 10:59:48;;;;;;;;;;;28.90;60.10;;;;;;5051114;28;19915;-72
2022/05/11 11:02:14;;;;;;;;;;;28.60;57.40;;;;;;5063803;28;19939;-72
2022/05/11 11:04:45;;;;;;;;;;;28.90;60.80;;;;;;5052848;28;19913;-72
2022/05/11 11:07:14;;;;;;;;;;;29.00;58.70;;;;;;5053122;28;20408;-73
2022/05/11 11:09:46;;;;;;;;;;;28.80;58.80;;;;;;5053284;28;20280;-72
2022/05/11 11:12:12;;;;;;;;;;;29.20;57.40;;;;;;5053559;28;19920;-72
2022/05/11 11:14:39;;;;;;;;;;;28.80;58.50;;;;;;5052835;28;19908;-72
2022/05/11 11:17:06;;;;;;;;;;;28.50;59.00;;;;;;5053004;28;20241;-72
2022/05/11 11:19:33;;;;;;;;;;;29.80;55.80;;;;;;5051331;28;19909;-72
2022/05/11 11:22:01;;;;;;;;;;;29.90;59.70;;;;;;5052907;28;19909;-73
2022/05/11 11:24:27;;;;;;;;;;;30.40;58.20;;;;;;5053044;28;20335;-72
2022/05/11 11:26:53;;;;;;;;;;;29.90;58.10;;;;;;5052915;28;19909;-72
2022/05/11 11:29:22;;;;;;;;;;;29.50;57.60;;;;;;5052544;28;20317;-72
2022/05/11 11:31:58;;;;;;;;;;;30.20;56.40;;;;;;5052488;28;19956;-72
2022/05/11 11:34:29;;;;;;;;;;;29.50;55.80;;;;;;5052388;28;20007;-72
2022/05/11 11:36:55;;;;;;;;;;;28.90;55.50;;;;;;5052664;28;20414;-72
2022/05/11 11:39:39;;;;;;;;;;;29.40;56.10;;;;;;5052588;28;19916;-72
2022/05/11 11:42:08;;;;;;;;;;;29.30;55.50;;;;;;5052460;28;19953;-72
2022/05/11 11:44:39;;;;;;;;;;;29.20;55.60;;;;;;5051217;28;20003;-72
2022/05/11 11:47:40;;;;;;;;;;;28.80;53.80;;;;;;5052229;28;19913;-72
2022/05/11 11:50:12;;;;;;;;;;;28.90;55.00;;;;;;5035802;28;19922;-72
2022/05/11 11:52:43;;;;;;;;;;;29.10;53.30;;;;;;5044316;28;19913;-72
2022/05/11 11:55:18;;;;;;;;;;;29.50;54.30;;;;;;5051836;28;19911;-73
2022/05/11 11:57:44;;;;;;;;;;;29.80;54.40;;;;;;5052011;28;20279;-72
2022/05/11 12:00:33;;;;;;;;;;;29.60;54.90;;;;;;5048606;28;19908;-72
2022/05/11 12:02:58;;;;;;;;;;;29.70;55.00;;;;;;5050131;28;19912;-72
2022/05/11 12:05:45;;;;;;;;;;;29.80;53.10;;;;;;5051642;28;19919;-73
2022/05/11 12:16:43;;;;;;;;;;;29.40;54.60;;;;;;5052246;28;20051;-72
2022/05/11 12:19:09;;;;;;;;;;;30.30;53.00;;;;;;5058474;28;19908;-73
2022/05/11 12:21:36;;;;;;;;;;;30.10;50.20;;;;;;5052380;28;19909;-72
2022/05/11 12:24:04;;;;;;;;;;;30.40;52.30;;;;;;5051773;28;19915;-72
2022/05/11 12:26:34;;;;;;;;;;;31.40;52.80;;;;;;5045974;28;20392;-72
2022/05/11 12:29:54;;;;;;;;;;;33.00;48.50;;;;;;5052107;28;19996;-72
2022/05/11 12:31:52;;;;;;;;;;;33.40;49.10;;;;;;5051377;28;20362;-73
2022/05/11 12:34:20;;;;;;;;;;;33.90;46.20;;;;;;5051671;28;19916;-72
2022/05/11 12:36:46;;;;;;;;;;;33.90;46.10;;;;;;5051631;28;19909;-72
2022/05/11 12:39:13;;;;;;;;;;;34.30;45.30;;;;;;5051783;28;20238;-71
2022/05/11 12:41:42;;;;;;;;;;;33.10;46.50;;;;;;5051255;28;20312;-71
2022/05/11 12:44:12;;;;;;;;;;;33.40;46.30;;;;;;5051124;28;19909;-71
2022/05/11 12:46:39;;;;;;;;;;;33.20;46.10;;;;;;5051423;28;19947;-72
2022/05/11 12:49:05;;;;;;;;;;;34.10;46.60;;;;;;5053147;28;19921;-72
2022/05/11 12:51:36;;;;;;;;;;;34.30;47.10;;;;;;5051614;28;19920;-72
2022/05/11 12:54:05;;;;;;;;;;;34.50;44.90;;;;;;5050845;28;20324;-71
2022/05/11 12:56:32;;;;;;;;;;;33.40;45.10;;;;;;5053162;28;20003;-72
2022/05/11 12:58:59;;;;;;;;;;;33.40;45.30;;;;;;5049633;28;19909;-72
2022/05/11 13:01:28;;;;;;;;;;;33.50;45.50;;;;;;5050883;28;19913;-72
2022/05/11 13:03:55;;;;;;;;;;;33.70;44.30;;;;;;5052377;28;19909;-72
2022/05/11 13:06:21;;;;;;;;;;;34.20;42.10;;;;;;5052241;28;19909;-72
2022/05/11 13:08:48;;;;;;;;;;;33.90;43.40;;;;;;5052336;28;20003;-72
2022/05/11 13:11:15;;;;;;;;;;;33.40;44.50;;;;;;5056565;28;19913;-71
2022/05/11 13:13:42;;;;;;;;;;;32.70;47.40;;;;;;5071306;28;19948;-72
2022/05/11 13:16:14;;;;;;;;;;;33.20;44.70;;;;;;5072835;28;19908;-72
2022/05/11 13:18:40;;;;;;;;;;;35.00;45.00;;;;;;5068130;28;19947;-72
2022/05/11 13:21:08;;;;;;;;;;;36.00;45.50;;;;;;5054852;28;19919;-72
2022/05/11 13:23:35;;;;;;;;;;;35.50;42.80;;;;;;5054808;28;20007;-72
2022/05/11 13:26:06;;;;;;;;;;;34.70;42.70;;;;;;5054757;28;19996;-72
2022/05/11 13:28:33;;;;;;;;;;;34.20;43.90;;;;;;5054952;28;20390;-71
2022/05/11 13:31:00;;;;;;;;;;;34.60;42.20;;;;;;5054730;28;20383;-72
2022/05/11 13:33:26;;;;;;;;;;;34.00;42.00;;;;;;5054077;28;20002;-73
2022/05/11 13:36:10;;;;;;;;;;;34.00;41.40;;;;;;5054668;28;19909;-73
2022/05/11 13:38:36;;;;;;;;;;;33.50;41.40;;;;;;5054307;28;20382;-72
2022/05/11 13:41:02;;;;;;;;;;;33.70;40.80;;;;;;5053814;28;20003;-72
2022/05/11 13:43:31;;;;;;;;;;;33.80;42.60;;;;;;5054114;28;20302;-73
2022/05/11 13:45:57;;;;;;;;;;;35.00;45.20;;;;;;5054676;28;20365;-73
2022/05/11 13:48:27;;;;;;;;;;;33.90;40.60;;;;;;5054628;28;19915;-73
2022/05/11 13:50:53;;;;;;;;;;;33.70;42.80;;;;;;5057936;28;19920;-72
2022/05/11 13:53:21;;;;;;;;;;;33.80;42.60;;;;;;5053519;28;19916;-73
2022/05/11 13:56:06;;;;;;;;;;;33.50;41.70;;;;;;5054280;28;19916;-72
2022/05/11 13:58:42;;;;;;;;;;;34.10;42.00;;;;;;5053514;28;20361;-73
2022/05/11 14:01:19;;;;;;;;;;;34.10;42.40;;;;;;5059086;28;19908;-73
2022/05/11 14:03:47;;;;;;;;;;;33.00;41.70;;;;;;5051411;28;19924;-72
2022/05/11 14:06:14;;;;;;;;;;;33.40;43.20;;;;;;5054021;28;20393;-73
2022/05/11 14:08:40;;;;;;;;;;;33.50;40.70;;;;;;5053213;28;20000;-73
2022/05/11 14:11:05;;;;;;;;;;;32.80;41.20;;;;;;5054017;28;20044;-73
2022/05/11 14:13:31;;;;;;;;;;;32.70;41.30;;;;;;5053719;28;20353;-73
2022/05/11 14:15:56;;;;;;;;;;;33.20;42.40;;;;;;5053948;28;19982;-73
2022/05/11 14:18:24;;;;;;;;;;;34.10;41.70;;;;;;5053565;28;19922;-73
2022/05/11 14:20:50;;;;;;;;;;;33.80;41.70;;;;;;5053790;28;19951;-73
2022/05/11 14:23:15;;;;;;;;;;;33.60;40.00;;;;;;5053579;28;19956;-73
2022/05/11 14:25:41;;;;;;;;;;;33.00;41.20;;;;;;5053710;28;19908;-73
2022/05/11 14:28:07;;;;;;;;;;;33.80;40.40;;;;;;5053778;28;20362;-73
2022/05/11 14:30:35;;;;;;;;;;;32.90;40.00;;;;;;5051269;28;19908;-72
2022/05/11 14:33:01;;;;;;;;;;;33.50;41.20;;;;;;5056702;28;20011;-72
2022/05/11 14:35:27;;;;;;;;;;;32.40;40.30;;;;;;5053571;28;19909;-72
2022/05/11 14:37:53;;;;;;;;;;;32.30;42.40;;;;;;5053561;28;19979;-72
2022/05/11 14:40:21;;;;;;;;;;;33.30;42.70;;;;;;5053340;28;19909;-72
2022/05/11 14:42:46;;;;;;;;;;;33.30;43.00;;;;;;5048929;28;19979;-71
2022/05/11 14:45:12;;;;;;;;;;;33.10;40.90;;;;;;5054047;28;20374;-71
2022/05/11 14:47:38;;;;;;;;;;;33.20;42.10;;;;;;5052586;28;19970;-71
2022/05/11 14:50:05;;;;;;;;;;;33.00;40.70;;;;;;5056653;28;20417;-72
2022/05/11 14:52:31;;;;;;;;;;;33.00;40.90;;;;;;5055200;28;19948;-72
2022/05/11 14:54:56;;;;;;;;;;;33.00;43.90;;;;;;5052843;28;19908;-71
2022/05/11 15:02:51;;;;;;;;;;;32.70;43.50;;;;;;5052725;28;19992;-72
2022/05/11 15:05:16;;;;;;;;;;;32.30;44.20;;;;;;5053010;28;19916;-72